createdAt,value
2022-11-02T00:00:31.037Z,100969.89
2022-11-02T00:03:41.048Z,100968.35
2022-11-02T00:06:31.132Z,100970.06
2022-11-02T00:09:21.381Z,100969.55
2022-11-02T00:12:11.468Z,100972.36
2022-11-02T00:15:01.582Z,100976.14
2022-11-02T00:17:53.475Z,100977.90
2022-11-02T00:20:43.875Z,100981.09
2022-11-02T00:23:34.151Z,100979.09
2022-11-02T00:26:24.489Z,100977.00
2022-11-02T00:29:14.707Z,100974.88
2022-11-02T00:32:05.508Z,100976.55
2022-11-02T00:34:55.599Z,100976.40
2022-11-02T00:37:45.648Z,100978.71
2022-11-02T00:40:35.692Z,100977.41
2022-11-02T00:43:25.863Z,100978.88
2022-11-02T00:46:15.920Z,100980.69
2022-11-02T00:49:05.967Z,100986.36
2022-11-02T00:51:57.362Z,100985.40
2022-11-02T00:54:49.660Z,100983.33
2022-11-02T00:57:40.000Z,100984.90
2022-11-02T01:00:30.961Z,100984.58
2022-11-02T01:03:20.993Z,100985.48
2022-11-02T01:06:14.850Z,100984.91
2022-11-02T01:09:05.191Z,100981.73
2022-11-02T01:11:55.258Z,100981.10
2022-11-02T01:14:46.358Z,100983.94
2022-11-02T01:17:37.726Z,100986.59
2022-11-02T01:20:28.156Z,100987.98
2022-11-02T01:23:18.231Z,100984.17
2022-11-02T01:26:09.953Z,100983.92
2022-11-02T01:28:59.984Z,100982.20
2022-11-02T01:31:53.200Z,100982.16
2022-11-02T01:34:43.395Z,100983.25
2022-11-02T01:37:34.716Z,100977.41
2022-11-02T01:40:24.736Z,100981.44
2022-11-02T01:43:23.284Z,100982.86
2022-11-02T01:46:20.332Z,100986.42
2022-11-02T01:49:12.480Z,100989.54
2022-11-02T01:52:08.384Z,100989.27
2022-11-02T01:55:01.061Z,100991.05
2022-11-02T01:57:55.725Z,100991.36
2022-11-02T02:00:45.806Z,100993.98
2022-11-02T02:03:36.962Z,100995.58
2022-11-02T02:06:27.097Z,100997.40
2022-11-02T02:09:18.089Z,100993.80
2022-11-02T02:12:08.623Z,100995.56
2022-11-02T02:14:59.197Z,100995.34
2022-11-02T02:17:54.267Z,100999.09
2022-11-02T02:21:17.692Z,100996.17
2022-11-02T02:24:44.060Z,100996.72
2022-11-02T02:27:51.699Z,100992.46
2022-11-02T02:30:46.062Z,100990.90
2022-11-02T02:33:39.029Z,100991.88
2022-11-02T02:36:32.841Z,100986.52
2022-11-02T02:39:28.323Z,100996.36
2022-11-02T02:42:21.597Z,100998.66
2022-11-02T02:45:15.851Z,101004.05
2022-11-02T02:48:09.387Z,101004.20
2022-11-02T02:51:02.121Z,101002.18
2022-11-02T02:53:57.311Z,101009.63
2022-11-02T02:56:50.980Z,101014.07
2022-11-02T02:59:43.296Z,101013.33
2022-11-02T03:02:35.990Z,101021.80
2022-11-02T03:05:29.797Z,101025.12
2022-11-02T03:08:20.984Z,101033.20
2022-11-02T03:11:14.690Z,101038.47
2022-11-02T03:14:12.430Z,101043.10
2022-11-02T03:17:13.226Z,101045.18
2022-11-02T03:20:09.006Z,101046.75
2022-11-02T03:23:04.625Z,101052.67
2022-11-02T03:25:59.405Z,101053.36
2022-11-02T03:28:57.355Z,101054.15
2022-11-02T03:31:53.815Z,101059.98
2022-11-02T03:34:46.705Z,101061.73
2022-11-02T03:37:39.212Z,101057.36
2022-11-02T03:40:31.688Z,101059.27
2022-11-02T03:43:21.944Z,101060.02
2022-11-02T03:46:13.996Z,101059.79
2022-11-02T03:49:07.612Z,101062.52
2022-11-02T03:52:05.039Z,101068.22
2022-11-02T03:55:02.697Z,101067.58
2022-11-02T03:57:51.958Z,101068.16
2022-11-02T04:00:50.249Z,101060.38
2022-11-02T04:03:43.245Z,101062.84
2022-11-02T04:06:33.352Z,101066.23
2022-11-02T04:09:24.141Z,101069.93
2022-11-02T04:12:32.608Z,101066.41
2022-11-02T04:15:22.715Z,101063.77
2022-11-02T04:18:31.235Z,101064.64
2022-11-02T04:21:21.798Z,101067.52
2022-11-02T04:24:30.983Z,101064.14
2022-11-02T04:27:21.543Z,101065.86
2022-11-02T04:30:14.202Z,101072.52
2022-11-02T04:33:22.984Z,101066.18
2022-11-02T04:36:17.863Z,101065.88
2022-11-02T04:39:11.825Z,101062.02
2022-11-02T04:42:01.913Z,101062.36
2022-11-02T04:45:01.704Z,101062.58
2022-11-02T04:47:52.331Z,101054.55
2022-11-02T04:50:42.498Z,101057.95
2022-11-02T04:53:34.821Z,101064.81
2022-11-02T04:56:25.736Z,101068.51
2022-11-02T04:59:16.099Z,101065.38
2022-11-02T05:02:06.450Z,101067.75
2022-11-02T05:04:56.865Z,101070.47
2022-11-02T05:07:47.095Z,101074.85
2022-11-02T05:10:37.574Z,101073.39
2022-11-02T05:13:28.199Z,101073.11
2022-11-02T05:16:20.252Z,101073.79
2022-11-02T05:19:12.133Z,101073.08
2022-11-02T05:22:02.768Z,101079.96
2022-11-02T05:24:53.376Z,101079.25
2022-11-02T05:27:43.707Z,101078.90
2022-11-02T05:30:34.370Z,101081.50
2022-11-02T05:33:29.393Z,101085.10
2022-11-02T05:36:21.665Z,101087.18
2022-11-02T05:39:13.617Z,101092.45
2022-11-02T05:42:05.004Z,101093.97
2022-11-02T05:44:55.221Z,101092.71
2022-11-02T05:47:47.186Z,101094.82
2022-11-02T05:50:37.344Z,101092.37
2022-11-02T05:53:31.076Z,101087.70
2022-11-02T05:56:24.982Z,101089.45
2022-11-02T05:59:16.246Z,101091.77
2022-11-02T06:02:06.309Z,101097.98
2022-11-02T06:04:56.444Z,101097.50
2022-11-02T06:07:46.514Z,101099.17
2022-11-02T06:10:36.633Z,101101.03
2022-11-02T06:13:26.636Z,101103.63
2022-11-02T06:16:21.659Z,101102.70
2022-11-02T06:22:04.940Z,101114.09
2022-11-02T06:24:55.238Z,101118.77
2022-11-02T06:27:52.486Z,101122.41
2022-11-02T06:30:44.088Z,101117.98
2022-11-02T06:33:34.140Z,101115.30
2022-11-02T06:36:24.236Z,101115.92
2022-11-02T06:39:14.430Z,101118.06
2022-11-02T06:42:04.993Z,101120.42
2022-11-02T06:45:02.016Z,101118.14
2022-11-02T06:47:52.602Z,101119.18
2022-11-02T06:50:43.536Z,101125.41
2022-11-02T06:53:33.744Z,101132.09
2022-11-02T06:56:23.851Z,101126.36
2022-11-02T06:59:14.052Z,101120.98
2022-11-02T07:02:04.301Z,101114.09
2022-11-02T07:04:54.603Z,101111.06
2022-11-02T07:07:44.652Z,101109.24
2022-11-02T07:10:35.317Z,101109.35
2022-11-02T07:13:25.742Z,101107.48
2022-11-02T07:16:16.162Z,101109.61
2022-11-02T07:19:07.130Z,101110.89
2022-11-02T07:21:58.208Z,101114.91
2022-11-02T07:24:48.275Z,101119.33
2022-11-02T07:27:41.581Z,101121.30
2022-11-02T07:30:34.554Z,101119.30
2022-11-02T07:33:24.599Z,101124.30
2022-11-02T07:36:14.882Z,101124.23
2022-11-02T07:39:06.217Z,101123.38
2022-11-02T07:41:56.430Z,101121.97
2022-11-02T07:44:47.900Z,101117.58
2022-11-02T07:47:44.562Z,101116.55
2022-11-02T07:50:35.160Z,101117.36
2022-11-02T07:53:25.513Z,101116.95
2022-11-02T07:56:15.571Z,101115.31
2022-11-02T07:59:05.807Z,101114.59
2022-11-02T08:01:56.077Z,101114.20
2022-11-02T08:04:46.525Z,101115.98
2022-11-02T08:07:37.168Z,101118.55
2022-11-02T08:10:27.705Z,101116.69
2022-11-02T08:13:19.572Z,101119.08
2022-11-02T08:16:10.247Z,101122.77
2022-11-02T08:19:19.100Z,101123.56
2022-11-02T08:22:09.367Z,101127.32
2022-11-02T08:25:00.080Z,101122.32
2022-11-02T08:27:50.352Z,101119.93
2022-11-02T08:30:40.499Z,101118.61
2022-11-02T08:33:30.640Z,101118.42
2022-11-02T08:36:20.810Z,101119.65
2022-11-02T08:39:14.713Z,101111.40
2022-11-02T08:42:08.863Z,101113.23
2022-11-02T08:44:59.024Z,101116.81
2022-11-02T08:47:49.195Z,101114.67
2022-11-02T08:50:39.512Z,101114.32
2022-11-02T08:53:29.965Z,101114.91
2022-11-02T08:56:24.993Z,101111.60
2022-11-02T08:59:15.456Z,101107.63
2022-11-02T09:02:06.092Z,101111.94
2022-11-02T09:04:56.838Z,101113.04
2022-11-02T09:07:47.228Z,101114.38
2022-11-02T09:10:38.135Z,101115.02
2022-11-02T09:13:28.725Z,101113.64
2022-11-02T09:16:19.663Z,101110.38
2022-11-02T09:19:18.697Z,101107.86
2022-11-02T09:22:09.287Z,101114.60
2022-11-02T09:25:00.505Z,101108.09
2022-11-02T09:27:55.729Z,101107.60
2022-11-02T09:30:46.467Z,101113.42
2022-11-02T09:33:36.720Z,101113.70
2022-11-02T09:36:29.263Z,101115.77
2022-11-02T09:39:24.753Z,101119.24
2022-11-02T09:42:20.841Z,101117.71
2022-11-02T09:45:16.467Z,101115.83
2022-11-02T09:48:18.615Z,101112.82
2022-11-02T09:51:13.735Z,101114.15
2022-11-02T09:54:17.490Z,101110.98
2022-11-02T09:57:27.573Z,101115.30
2022-11-02T10:00:18.979Z,101120.30
2022-11-02T10:03:17.769Z,101122.55
2022-11-02T10:06:15.030Z,101120.74
2022-11-02T10:09:16.171Z,101123.40
2022-11-02T10:12:10.411Z,101118.72
2022-11-02T10:15:06.042Z,101118.81
2022-11-02T10:17:57.577Z,101117.92
2022-11-02T10:20:49.661Z,101116.71
2022-11-02T10:23:42.716Z,101111.20
2022-11-02T10:26:39.147Z,101112.46
2022-11-02T10:29:41.481Z,101117.25
2022-11-02T10:32:34.889Z,101119.48
2022-11-02T10:35:45.735Z,101120.23
2022-11-02T10:38:57.920Z,101118.85
2022-11-02T10:42:26.781Z,101115.55
2022-11-02T10:45:32.589Z,101117.42
2022-11-02T10:48:32.998Z,101119.30
2022-11-02T10:51:24.321Z,101131.29
2022-11-02T10:54:19.654Z,101120.59
2022-11-02T10:57:17.618Z,101112.33
2022-11-02T11:00:26.331Z,101113.00
2022-11-02T11:03:20.162Z,101114.08
2022-11-02T11:06:11.257Z,101114.38
2022-11-02T11:09:07.253Z,101110.89
2022-11-02T11:12:02.024Z,101111.98
2022-11-02T11:21:39.229Z,101104.86
2022-11-02T11:24:31.676Z,101108.39
2022-11-02T11:27:22.025Z,101109.04
2022-11-02T11:30:58.366Z,101116.19
2022-11-02T11:33:44.806Z,101113.76
2022-11-02T11:36:37.108Z,101115.13
2022-11-02T11:39:28.652Z,101111.48
2022-11-02T11:42:23.186Z,101104.79
2022-11-02T11:45:21.955Z,101101.23
2022-11-02T11:48:33.594Z,101104.39
2022-11-02T11:51:38.096Z,101108.59
2022-11-02T11:54:30.518Z,101109.99
2022-11-02T11:57:34.905Z,101106.71
2022-11-02T12:00:29.993Z,101100.48
2022-11-02T12:03:22.598Z,101097.45
2022-11-02T12:06:21.192Z,101094.42
2022-11-02T12:09:17.278Z,101090.86
2022-11-02T12:12:11.738Z,101085.55
2022-11-02T12:15:13.700Z,101079.52
2022-11-02T12:18:19.088Z,101071.78
2022-11-02T12:21:18.857Z,101070.01
2022-11-02T12:24:34.696Z,101063.58
2022-11-02T12:27:34.743Z,101055.86
2022-11-02T12:30:25.606Z,101052.48
2022-11-02T12:33:33.196Z,101051.13
2022-11-02T12:36:42.335Z,101047.20
2022-11-02T12:39:56.531Z,101046.44
2022-11-02T12:42:51.252Z,101043.24
2022-11-02T12:45:46.604Z,101040.36
2022-11-02T12:48:42.798Z,101035.26
2022-11-02T12:51:33.764Z,101032.66
2022-11-02T12:54:26.701Z,101033.23
2022-11-02T12:57:19.019Z,101035.00
2022-11-02T13:00:18.199Z,101033.55
2022-11-02T13:03:16.437Z,101034.77
2022-11-02T13:06:10.663Z,101039.80
2022-11-02T13:09:04.315Z,101033.42
2022-11-02T13:11:58.765Z,101033.43
2022-11-02T13:14:50.075Z,101038.84
2022-11-02T13:17:43.721Z,101039.28
2022-11-02T13:20:40.968Z,101040.75
2022-11-02T13:23:36.358Z,101045.05
2022-11-02T13:26:29.758Z,101045.11
2022-11-02T13:29:24.432Z,101042.09
2022-11-02T13:32:21.388Z,101041.25
2022-11-02T13:35:18.960Z,101043.19
2022-11-02T13:38:20.647Z,101038.97
2022-11-02T13:41:22.280Z,101044.90
2022-11-02T13:44:33.398Z,101049.86
2022-11-02T13:47:41.121Z,101053.80
2022-11-02T13:50:31.816Z,101053.77
2022-11-02T13:53:25.997Z,101059.64
2022-11-02T13:56:23.644Z,101055.26
2022-11-02T13:59:23.595Z,101059.02
2022-11-02T14:02:15.921Z,101065.08
2022-11-02T14:05:08.489Z,101062.97
2022-11-02T14:08:02.612Z,101062.42
2022-11-02T14:11:29.106Z,101062.11
2022-11-02T14:14:22.790Z,101065.38
2022-11-02T14:17:52.126Z,101064.10
2022-11-02T14:20:50.807Z,101061.95
2022-11-02T14:23:42.413Z,101067.93
2022-11-02T14:26:55.852Z,101067.81
2022-11-02T14:29:53.022Z,101066.77
2022-11-02T14:32:52.061Z,101068.98
2022-11-02T14:35:44.444Z,101068.88
2022-11-02T14:38:46.879Z,101067.65
2022-11-02T14:41:47.538Z,101068.02
2022-11-02T14:45:27.203Z,101063.30
2022-11-02T14:48:17.562Z,101064.19
2022-11-02T14:51:13.966Z,101070.09
2022-11-02T14:54:15.054Z,101072.08
2022-11-02T14:57:07.458Z,101077.05
2022-11-02T14:59:58.872Z,101077.82
2022-11-02T15:02:49.021Z,101084.94
2022-11-02T15:05:39.775Z,101086.88
2022-11-02T15:08:31.529Z,101086.36
2022-11-02T15:11:48.837Z,101088.11
2022-11-02T15:14:59.369Z,101085.69
2022-11-02T15:17:58.053Z,101085.10
2022-11-02T15:21:24.541Z,101084.01
2022-11-02T15:24:29.859Z,101086.98
2022-11-02T15:27:20.102Z,101090.61
2022-11-02T15:30:14.901Z,101094.08
2022-11-02T15:33:06.627Z,101093.42
2022-11-02T15:35:57.111Z,101098.30
2022-11-02T15:38:50.647Z,101099.30
2022-11-02T15:41:43.655Z,101099.70
2022-11-02T15:45:09.320Z,101102.42
2022-11-02T15:48:25.326Z,101102.02
2022-11-02T15:51:21.739Z,101100.00
2022-11-02T15:54:20.894Z,101104.83
2022-11-02T15:57:16.502Z,101105.44
2022-11-02T16:00:31.838Z,101109.86
2022-11-02T16:03:22.017Z,101112.31
2022-11-02T16:06:15.454Z,101108.87
2022-11-02T16:09:39.179Z,101109.81
2022-11-02T16:12:49.444Z,101115.45
2022-11-02T16:15:43.052Z,101114.94
2022-11-02T16:18:41.842Z,101120.80
2022-11-02T16:21:34.051Z,101126.17
2022-11-02T16:24:31.951Z,101131.30
2022-11-02T16:27:24.262Z,101133.63
2022-11-02T16:30:22.382Z,101131.77
2022-11-02T16:33:25.561Z,101131.20
2022-11-02T16:36:18.376Z,101135.72
2022-11-02T16:39:22.542Z,101141.79
2022-11-02T16:42:21.561Z,101145.91
2022-11-02T16:45:42.288Z,101140.63
2022-11-02T16:48:35.109Z,101144.92
2022-11-02T16:51:28.632Z,101142.70
2022-11-02T16:54:26.832Z,101147.95
2022-11-02T16:57:19.882Z,101151.70
2022-11-02T17:00:18.861Z,101154.00
2022-11-02T17:03:10.634Z,101156.49
2022-11-02T17:06:03.056Z,101159.39
2022-11-02T17:08:54.697Z,101162.21
2022-11-02T17:11:45.531Z,101162.77
2022-11-02T17:14:35.667Z,101161.46
2022-11-02T17:17:40.441Z,101158.14
2022-11-02T17:20:32.145Z,101160.90
2022-11-02T17:23:33.440Z,101170.38
2022-11-02T17:26:37.628Z,101170.19
2022-11-02T17:29:34.345Z,101171.96
2022-11-02T17:32:24.593Z,101179.05
2022-11-02T17:35:16.085Z,101179.04
2022-11-02T17:38:08.542Z,101178.34
2022-11-02T17:40:59.475Z,101178.37
2022-11-02T17:43:49.576Z,101184.92
2022-11-02T17:46:41.734Z,101183.62
2022-11-02T17:49:37.771Z,101181.39
2022-11-02T17:52:29.051Z,101181.20
2022-11-02T17:55:21.274Z,101185.13
2022-11-02T17:58:13.317Z,101177.17
2022-11-02T18:01:09.435Z,101179.20
2022-11-02T18:04:00.823Z,101183.70
2022-11-02T18:06:55.037Z,101190.56
2022-11-02T18:09:45.273Z,101193.30
2022-11-02T18:12:35.386Z,101199.23
2022-11-02T18:15:26.979Z,101200.88
2022-11-02T18:18:17.304Z,101195.67
2022-11-02T18:21:09.858Z,101203.23
2022-11-02T18:24:00.266Z,101200.41
2022-11-02T18:26:50.546Z,101200.65
2022-11-02T18:29:40.937Z,101204.81
2022-11-02T18:32:31.264Z,101203.13
2022-11-02T18:35:23.963Z,101195.70
2022-11-02T18:38:14.909Z,101196.66
2022-11-02T18:41:27.033Z,101202.23
2022-11-02T18:44:19.149Z,101202.09
2022-11-02T18:47:10.064Z,101205.86
2022-11-02T18:50:00.855Z,101206.50
2022-11-02T18:52:52.847Z,101207.38
2022-11-02T18:55:43.375Z,101206.38
2022-11-02T18:58:36.547Z,101204.07
2022-11-02T19:01:27.100Z,101203.05
2022-11-02T19:04:18.057Z,101203.58
2022-11-02T19:07:28.081Z,101202.25
2022-11-02T19:10:19.891Z,101197.98
2022-11-02T19:13:14.527Z,101193.03
2022-11-02T19:16:06.020Z,101192.55
2022-11-02T19:18:56.374Z,101190.31
2022-11-02T19:21:46.632Z,101188.02
2022-11-02T19:24:36.784Z,101187.71
2022-11-02T19:27:27.083Z,101189.05
2022-11-02T19:30:17.338Z,101192.61
2022-11-02T19:33:08.049Z,101194.58
2022-11-02T19:35:59.145Z,101191.61
2022-11-02T19:38:49.178Z,101195.17
2022-11-02T19:41:39.340Z,101194.88
2022-11-02T19:44:29.447Z,101194.31
2022-11-02T19:47:19.707Z,101193.29
2022-11-02T19:50:10.035Z,101198.36
2022-11-02T19:53:02.012Z,101203.20
2022-11-02T19:55:54.886Z,101210.52
2022-11-02T19:58:47.115Z,101209.70
2022-11-02T20:01:39.007Z,101213.48
2022-11-02T20:04:29.147Z,101214.79
2022-11-02T20:07:19.811Z,101212.07
2022-11-02T20:10:10.942Z,101211.70
2022-11-02T20:13:00.966Z,101215.05
2022-11-02T20:15:54.740Z,101219.54
2022-11-02T20:18:47.029Z,101221.82
2022-11-02T20:21:42.650Z,101222.82
2022-11-02T20:24:33.406Z,101226.59
2022-11-02T20:27:23.757Z,101229.85
2022-11-02T20:30:14.910Z,101234.86
2022-11-02T20:33:05.431Z,101235.79
2022-11-02T20:35:55.495Z,101238.85
2022-11-02T20:38:46.317Z,101240.02
2022-11-02T20:41:36.951Z,101244.27
2022-11-02T20:44:27.088Z,101245.24
2022-11-02T20:47:17.392Z,101249.58
2022-11-02T20:50:14.589Z,101258.02
2022-11-02T20:53:07.038Z,101262.90
2022-11-02T20:55:57.466Z,101261.48
2022-11-02T20:58:55.325Z,101265.98
2022-11-02T21:01:46.327Z,101268.17
2022-11-02T21:04:36.916Z,101272.72
2022-11-02T21:07:27.131Z,101269.61
2022-11-02T21:10:18.445Z,101264.05
2022-11-02T21:13:28.917Z,101262.34
2022-11-02T21:16:19.221Z,101265.98
2022-11-02T21:19:09.612Z,101271.42
2022-11-02T21:22:00.627Z,101274.09
2022-11-02T21:24:50.969Z,101271.98
2022-11-02T21:27:41.037Z,101274.56
2022-11-02T21:30:31.087Z,101277.06
2022-11-02T21:33:22.358Z,101278.59
2022-11-02T21:36:12.975Z,101283.33
2022-11-02T21:39:02.937Z,101284.64
2022-11-02T21:41:53.011Z,101284.68
2022-11-02T21:44:43.011Z,101290.68
2022-11-02T21:47:36.137Z,101290.45
2022-11-02T21:50:26.118Z,101291.16
2022-11-02T21:53:16.395Z,101289.56
2022-11-02T21:56:08.687Z,101285.65
2022-11-02T21:58:59.084Z,101287.83
2022-11-02T22:01:49.730Z,101294.17
2022-11-02T22:04:40.843Z,101297.64
2022-11-02T22:07:51.589Z,101298.63
2022-11-02T22:10:41.689Z,101298.73
2022-11-02T22:13:34.250Z,101302.11
2022-11-02T22:16:27.016Z,101306.35
2022-11-02T22:19:17.220Z,101309.95
2022-11-02T22:22:07.518Z,101313.01
2022-11-02T22:24:57.507Z,101310.64
2022-11-02T22:27:47.808Z,101307.91
2022-11-02T22:30:39.715Z,101306.05
2022-11-02T22:33:31.077Z,101307.69
2022-11-02T22:36:22.716Z,101310.61
2022-11-02T22:39:13.891Z,101309.32
2022-11-02T22:42:04.201Z,101314.55
2022-11-02T22:44:57.841Z,101315.46
2022-11-02T22:47:47.822Z,101320.35
2022-11-02T22:50:37.778Z,101325.52
2022-11-02T22:53:27.978Z,101324.83
2022-11-02T22:56:19.090Z,101327.30
2022-11-02T22:59:09.234Z,101329.94
2022-11-02T23:01:59.349Z,101330.41
2022-11-02T23:04:49.623Z,101331.27
2022-11-02T23:07:39.788Z,101333.02
2022-11-02T23:10:51.977Z,101333.66
2022-11-02T23:13:45.290Z,101334.50
2022-11-02T23:16:36.306Z,101339.85
2022-11-02T23:19:29.303Z,101339.71
2022-11-02T23:22:37.731Z,101342.52
2022-11-02T23:25:27.722Z,101347.31
2022-11-02T23:28:35.775Z,101350.31
2022-11-02T23:31:43.896Z,101350.84
2022-11-02T23:34:33.835Z,101350.79
2022-11-02T23:37:23.790Z,101349.39
2022-11-02T23:40:18.530Z,101353.69
2022-11-02T23:43:08.985Z,101352.56
2022-11-02T23:45:59.574Z,101354.46
2022-11-02T23:48:52.760Z,101356.90
2022-11-02T23:52:01.916Z,101354.73
2022-11-02T23:55:10.188Z,101356.84
2022-11-02T23:58:00.398Z,101354.82
